Renfrew, Pennsylvania
Current Conditions -  °F | °C
As of 1:15 AM on Wednesday 22 Oct 2014 (Local Time) from KBTP Reporting Station
Overcast Overcast  
Wind Chill: 44°   Ceiling: 900
Heat Index: 46°   Visibility: 10mi
Dew Point: 45°   Wind: 5mph
Humidity: 93%   Direction: 340°NNW
Pressure: 30.04"   Gusts: NA
Location:  40.81°N, 79.96°W
Report Text: KBTP 220515Z AUTO 34004KT 10SM OVC009 08/07 A3004 RMK AO1
Loading
Personal Weather Stations






























Interactive Weather Map
Tropical Storm Tracking
New forecast layout! Learn more

10-Day Weather Forecast

Advertisements
Track Severe Weather on mobile